createdAt,value
2023-07-20T00:00:31.549Z,65.42
2023-07-20T00:03:20.512Z,59.48
2023-07-20T00:05:48.640Z,57.01
2023-07-20T00:08:17.621Z,58.45
2023-07-20T00:10:45.581Z,61.49
2023-07-20T00:13:14.042Z,63.63
2023-07-20T00:15:41.994Z,65.12
2023-07-20T00:18:10.122Z,62.02
2023-07-20T00:20:38.062Z,58.35
2023-07-20T00:23:06.542Z,57.49
2023-07-20T00:25:34.691Z,59.24
2023-07-20T00:28:03.052Z,61.66
2023-07-20T00:30:31.057Z,65.48
2023-07-20T00:32:59.131Z,64.55
2023-07-20T00:35:27.190Z,61.88
2023-07-20T00:37:55.424Z,58.43
2023-07-20T00:40:23.469Z,57.72
2023-07-20T00:42:51.459Z,59.29
2023-07-20T00:45:27.186Z,64.17
2023-07-20T00:47:55.297Z,63.85
2023-07-20T00:50:23.817Z,59.05
2023-07-20T00:52:51.917Z,58.86
2023-07-20T00:55:21.094Z,61.35
2023-07-20T00:57:49.201Z,64.69
2023-07-20T01:00:17.672Z,63.23
2023-07-20T01:02:46.709Z,59.45
2023-07-20T01:05:17.724Z,59.00
2023-07-20T01:08:08.714Z,61.19
2023-07-20T01:10:36.775Z,63.19
2023-07-20T01:13:08.150Z,59.95
2023-07-20T01:15:36.165Z,57.34
2023-07-20T01:18:05.821Z,58.05
2023-07-20T01:20:35.727Z,60.12
2023-07-20T01:23:29.258Z,60.57
2023-07-20T01:26:11.180Z,61.83
2023-07-20T01:29:31.166Z,61.45
2023-07-20T01:32:02.330Z,56.12
2023-07-20T01:34:31.543Z,57.19
2023-07-20T01:37:01.974Z,58.65
2023-07-20T01:39:30.733Z,59.53
2023-07-20T01:41:58.967Z,61.40
2023-07-20T01:44:26.955Z,61.98
2023-07-20T01:46:54.931Z,62.05
2023-07-20T01:49:23.020Z,59.77
2023-07-20T01:51:50.995Z,56.42
2023-07-20T01:54:19.070Z,56.52
2023-07-20T01:56:47.796Z,58.51
2023-07-20T01:59:15.844Z,59.17
2023-07-20T02:01:43.988Z,60.48
2023-07-20T02:04:13.615Z,64.62
2023-07-20T02:06:41.553Z,62.09
2023-07-20T02:09:09.585Z,58.11
2023-07-20T02:11:37.629Z,58.68
2023-07-20T02:14:05.611Z,60.93
2023-07-20T02:16:33.766Z,62.52
2023-07-20T02:19:01.805Z,60.57
2023-07-20T02:21:29.775Z,58.33
2023-07-20T02:23:57.737Z,58.70
2023-07-20T02:26:25.837Z,59.87
2023-07-20T02:28:54.057Z,63.12
2023-07-20T02:31:22.262Z,61.10
2023-07-20T02:33:50.420Z,58.17
2023-07-20T02:36:19.012Z,57.99
2023-07-20T02:38:47.611Z,60.21
2023-07-20T02:41:15.617Z,64.28
2023-07-20T02:43:43.612Z,62.79
2023-07-20T02:46:12.155Z,58.46
2023-07-20T02:48:40.199Z,59.12
2023-07-20T02:51:08.756Z,60.73
2023-07-20T02:53:37.747Z,63.52
2023-07-20T02:56:05.732Z,62.87
2023-07-20T02:58:38.347Z,59.31
2023-07-20T03:01:06.422Z,59.48
2023-07-20T03:03:39.935Z,62.72
2023-07-20T03:06:10.060Z,62.44
2023-07-20T03:08:38.083Z,59.64
2023-07-20T03:11:06.101Z,60.40
2023-07-20T03:13:34.052Z,62.86
2023-07-20T03:16:02.120Z,62.28
2023-07-20T03:18:30.613Z,60.36
2023-07-20T03:20:58.576Z,60.15
2023-07-20T03:23:27.623Z,59.13
2023-07-20T03:25:56.419Z,61.17
2023-07-20T03:28:24.812Z,63.68
2023-07-20T03:30:58.023Z,62.12
2023-07-20T03:33:28.774Z,59.67
2023-07-20T03:35:58.132Z,59.71
2023-07-20T03:38:28.313Z,62.66
2023-07-20T03:40:59.036Z,63.12
2023-07-20T03:43:28.628Z,60.77
2023-07-20T03:45:58.017Z,60.30
2023-07-20T03:48:27.168Z,58.74
2023-07-20T03:50:55.519Z,61.82
2023-07-20T03:53:23.493Z,63.95
2023-07-20T03:55:53.066Z,61.68
2023-07-20T03:58:22.713Z,58.94
2023-07-20T04:00:52.585Z,58.78
2023-07-20T04:03:21.469Z,61.61
2023-07-20T04:05:49.636Z,64.56
2023-07-20T04:08:18.635Z,62.66
2023-07-20T04:10:46.726Z,59.09
2023-07-20T04:13:14.712Z,59.20
2023-07-20T04:15:44.028Z,61.97
2023-07-20T04:18:12.068Z,64.53
2023-07-20T04:20:40.076Z,62.62
2023-07-20T04:23:08.176Z,59.86
2023-07-20T04:25:40.698Z,59.38
2023-07-20T04:28:11.142Z,60.62
2023-07-20T04:30:43.647Z,63.79
2023-07-20T04:33:12.196Z,62.39
2023-07-20T04:35:53.666Z,60.56
2023-07-20T04:38:34.515Z,58.48
2023-07-20T04:41:16.125Z,61.06
2023-07-20T04:43:47.208Z,64.33
2023-07-20T04:46:20.569Z,63.09
2023-07-20T04:48:49.254Z,59.91
2023-07-20T04:51:22.041Z,58.51
2023-07-20T04:53:52.552Z,60.29
2023-07-20T04:56:20.889Z,63.14
2023-07-20T04:58:49.174Z,63.58
2023-07-20T05:01:17.428Z,62.29
2023-07-20T05:03:45.727Z,60.40
2023-07-20T05:06:14.076Z,57.18
2023-07-20T05:08:42.281Z,59.24
2023-07-20T05:11:10.402Z,61.66
2023-07-20T05:13:38.935Z,63.49
2023-07-20T05:16:07.078Z,59.58
2023-07-20T05:18:35.655Z,57.05
2023-07-20T05:21:03.845Z,58.76
2023-07-20T05:23:31.778Z,60.49
2023-07-20T05:26:00.626Z,63.90
2023-07-20T05:28:28.707Z,62.85
2023-07-20T05:30:56.733Z,57.96
2023-07-20T05:33:24.670Z,57.13
2023-07-20T05:35:52.569Z,59.63
2023-07-20T05:38:21.297Z,60.47
2023-07-20T05:40:49.274Z,64.76
2023-07-20T05:43:17.271Z,64.45
2023-07-20T05:45:46.456Z,60.83
2023-07-20T05:48:14.591Z,57.62
2023-07-20T05:50:45.584Z,55.78
2023-07-20T05:53:13.613Z,57.61
2023-07-20T05:55:41.956Z,58.87
2023-07-20T05:58:09.946Z,60.03
2023-07-20T06:00:38.000Z,61.90
2023-07-20T06:03:05.952Z,63.40
2023-07-20T06:05:33.962Z,60.20
2023-07-20T06:08:02.459Z,55.59
2023-07-20T06:10:30.478Z,57.17
2023-07-20T06:12:58.565Z,59.97
2023-07-20T06:15:33.548Z,62.26
2023-07-20T06:18:02.270Z,62.67
2023-07-20T06:20:30.386Z,58.49
2023-07-20T06:22:58.435Z,59.30
2023-07-20T06:25:26.630Z,61.74
2023-07-20T06:27:56.963Z,62.83
2023-07-20T06:30:25.442Z,60.82
2023-07-20T06:32:53.451Z,57.77
2023-07-20T06:35:21.999Z,58.23
2023-07-20T06:37:49.992Z,59.58
2023-07-20T06:45:20.265Z,56.52
2023-07-20T06:47:48.291Z,57.80
2023-07-20T06:50:18.432Z,59.81
2023-07-20T06:52:49.284Z,61.08
2023-07-20T06:55:23.236Z,63.25
2023-07-20T06:57:52.784Z,61.35
2023-07-20T07:00:21.274Z,56.53
2023-07-20T07:02:50.785Z,56.08
2023-07-20T07:05:21.274Z,58.26
2023-07-20T07:07:50.267Z,60.68
2023-07-20T07:10:19.585Z,61.48
2023-07-20T07:12:48.338Z,62.88
2023-07-20T07:15:17.470Z,59.66
2023-07-20T07:17:45.864Z,56.92
2023-07-20T07:20:21.128Z,57.67
2023-07-20T07:22:52.635Z,59.11
2023-07-20T07:25:23.523Z,60.76
2023-07-20T07:27:53.996Z,61.69
2023-07-20T07:30:22.062Z,62.59
2023-07-20T07:32:50.391Z,58.98
2023-07-20T07:35:18.845Z,54.18
2023-07-20T07:38:03.904Z,55.36
2023-07-20T07:40:35.855Z,57.50
2023-07-20T07:43:04.764Z,60.09
2023-07-20T07:45:37.825Z,60.91
2023-07-20T07:48:09.529Z,62.39
2023-07-20T07:50:37.498Z,61.83
2023-07-20T07:53:05.422Z,57.11
2023-07-20T07:55:33.357Z,58.19
2023-07-20T07:58:01.293Z,59.43
2023-07-20T08:00:29.286Z,59.69
2023-07-20T08:02:57.344Z,60.36
2023-07-20T08:05:25.576Z,60.61
2023-07-20T08:07:54.246Z,60.98
2023-07-20T08:10:23.229Z,60.29
2023-07-20T08:12:51.148Z,61.32
2023-07-20T08:15:19.204Z,62.27
2023-07-20T08:17:47.391Z,62.47
2023-07-20T08:20:17.564Z,56.77
2023-07-20T08:22:47.662Z,56.19
2023-07-20T08:25:16.724Z,58.13
2023-07-20T08:27:47.479Z,58.91
2023-07-20T08:30:15.435Z,59.81
2023-07-20T08:32:43.435Z,59.94
2023-07-20T08:35:11.382Z,60.33
2023-07-20T08:37:39.589Z,60.80
2023-07-20T08:40:11.043Z,60.62
2023-07-20T08:42:40.055Z,60.15
2023-07-20T08:45:10.469Z,60.36
2023-07-20T08:47:39.269Z,60.35
2023-07-20T08:50:09.306Z,59.91
2023-07-20T08:52:37.648Z,59.99
2023-07-20T08:55:06.458Z,60.32
2023-07-20T08:57:34.945Z,60.49
2023-07-20T09:00:08.561Z,60.59
2023-07-20T09:02:40.747Z,60.12
2023-07-20T09:05:15.422Z,58.89
2023-07-20T09:07:43.614Z,58.35
2023-07-20T09:10:12.721Z,58.17
2023-07-20T09:12:42.326Z,57.26
2023-07-20T09:15:13.001Z,57.25
2023-07-20T09:17:46.617Z,56.68
2023-07-20T09:20:16.656Z,56.98
2023-07-20T09:22:44.878Z,56.98
2023-07-20T09:25:17.739Z,56.97
2023-07-20T09:27:48.194Z,57.68
2023-07-20T09:30:19.171Z,58.04
2023-07-20T09:32:54.610Z,57.92
2023-07-20T09:35:27.627Z,58.45
2023-07-20T09:50:55.074Z,56.99
2023-07-20T09:53:26.500Z,56.42
2023-07-20T09:55:55.655Z,55.16
2023-07-20T09:58:23.830Z,54.97
2023-07-20T10:00:54.216Z,55.64
2023-07-20T10:03:29.760Z,56.49
2023-07-20T10:06:08.733Z,56.84
2023-07-20T10:11:15.541Z,58.44
2023-07-20T10:13:46.170Z,57.65
2023-07-20T10:16:29.395Z,57.15
2023-07-20T10:19:18.056Z,55.45
2023-07-20T10:21:59.506Z,55.37
2023-07-20T10:24:29.174Z,55.29
2023-07-20T10:26:57.431Z,56.21
2023-07-20T10:29:26.474Z,57.10
2023-07-20T10:31:56.158Z,57.68
2023-07-20T10:34:24.945Z,57.52
2023-07-20T10:36:55.838Z,57.22
2023-07-20T10:39:26.054Z,56.58
2023-07-20T10:42:11.045Z,54.44
2023-07-20T10:44:40.223Z,54.27
2023-07-20T10:47:13.476Z,54.98
2023-07-20T10:50:01.892Z,55.16
2023-07-20T10:52:42.255Z,56.01
2023-07-20T10:55:18.124Z,56.68
2023-07-20T10:58:11.000Z,56.56
2023-07-20T11:00:57.195Z,56.45
2023-07-20T11:03:35.752Z,57.80
2023-07-20T11:06:36.159Z,58.85
2023-07-20T11:09:09.973Z,59.00
2023-07-20T11:11:39.575Z,58.84
2023-07-20T11:14:10.548Z,59.19
2023-07-20T11:16:44.782Z,58.31
2023-07-20T11:20:23.024Z,57.77
2023-07-20T11:22:09.065Z,57.37
2023-07-20T11:24:41.722Z,57.13
2023-07-20T11:27:09.819Z,55.49
2023-07-20T11:29:38.902Z,54.76
2023-07-20T11:32:07.348Z,54.14
2023-07-20T11:34:36.691Z,54.00
2023-07-20T11:39:37.747Z,52.66
2023-07-20T11:42:06.435Z,52.90
2023-07-20T11:44:34.459Z,53.09
2023-07-20T11:47:08.586Z,51.59
2023-07-20T11:49:44.195Z,50.24
2023-07-20T11:52:17.033Z,50.62
2023-07-20T11:54:48.663Z,50.60
2023-07-20T11:57:19.154Z,49.97
2023-07-20T12:00:06.664Z,50.06
2023-07-20T12:02:34.576Z,49.34
2023-07-20T12:05:04.157Z,48.62
2023-07-20T12:07:41.054Z,48.24
2023-07-20T12:10:11.599Z,47.14
2023-07-20T12:12:44.779Z,47.36
2023-07-20T12:15:33.245Z,47.77
2023-07-20T12:18:03.335Z,48.51
2023-07-20T12:20:32.882Z,48.65
2023-07-20T12:23:03.960Z,48.30
2023-07-20T12:25:40.606Z,47.98
2023-07-20T12:28:10.930Z,46.40
2023-07-20T12:30:39.815Z,47.06
2023-07-20T12:33:08.327Z,45.94
2023-07-20T12:35:36.399Z,45.72
2023-07-20T12:38:04.419Z,43.57
2023-07-20T12:40:32.375Z,43.60
2023-07-20T12:43:00.366Z,43.72
2023-07-20T12:45:28.669Z,42.23
2023-07-20T12:47:56.617Z,42.41
2023-07-20T12:50:24.598Z,41.99
2023-07-20T12:52:52.503Z,42.10
2023-07-20T12:55:21.176Z,41.86
2023-07-20T12:57:49.234Z,41.31
2023-07-20T13:00:17.775Z,40.81
2023-07-20T13:02:45.883Z,42.60
2023-07-20T13:05:13.806Z,43.53
2023-07-20T13:10:13.553Z,44.61
2023-07-20T13:12:41.645Z,44.83
2023-07-20T13:15:11.755Z,45.59
2023-07-20T13:17:40.983Z,45.51
2023-07-20T13:20:12.200Z,44.87
2023-07-20T13:22:40.724Z,44.29
2023-07-20T13:25:09.261Z,43.60
2023-07-20T13:27:39.091Z,43.41
2023-07-20T13:30:09.855Z,43.39
2023-07-20T13:32:41.353Z,43.31
2023-07-20T13:35:13.253Z,43.64
2023-07-20T13:37:42.572Z,44.18
2023-07-20T13:40:14.664Z,43.82
2023-07-20T13:42:42.807Z,43.75
2023-07-20T13:45:10.956Z,44.27
2023-07-20T13:47:39.057Z,44.31
2023-07-20T13:50:07.815Z,43.78
2023-07-20T13:55:07.705Z,41.44
2023-07-20T13:57:35.912Z,41.69
2023-07-20T14:00:05.447Z,42.50
2023-07-20T14:07:44.459Z,43.39
2023-07-20T14:12:43.389Z,42.85
2023-07-20T14:15:12.432Z,42.23
2023-07-20T14:17:40.528Z,43.77
2023-07-20T14:20:22.102Z,44.95
2023-07-20T14:22:52.033Z,45.65
2023-07-20T14:25:20.635Z,45.55
2023-07-20T14:27:48.861Z,46.19
2023-07-20T14:30:16.989Z,47.43
2023-07-20T14:32:46.155Z,48.43
2023-07-20T14:35:15.363Z,49.22
2023-07-20T14:37:43.364Z,50.06
2023-07-20T14:40:12.410Z,50.33
2023-07-20T14:42:40.618Z,51.08
2023-07-20T14:45:09.331Z,51.81
2023-07-20T14:47:37.440Z,52.43
2023-07-20T14:50:07.414Z,52.66
2023-07-20T14:52:35.357Z,52.78
2023-07-20T14:55:03.271Z,52.71
2023-07-20T14:57:31.240Z,52.66
2023-07-20T14:59:59.196Z,52.48
2023-07-20T15:02:27.362Z,52.15
2023-07-20T15:04:56.990Z,52.43
2023-07-20T15:07:25.120Z,52.24
2023-07-20T15:09:53.399Z,51.69
2023-07-20T15:12:21.371Z,52.81
2023-07-20T15:15:07.458Z,54.55
2023-07-20T15:17:36.872Z,57.31
2023-07-20T15:20:06.560Z,59.75
2023-07-20T15:22:35.617Z,61.29
2023-07-20T15:25:05.370Z,61.98
2023-07-20T15:27:34.113Z,63.19
2023-07-20T15:30:02.720Z,63.26
2023-07-20T15:33:10.129Z,56.57
2023-07-20T15:35:18.958Z,56.77
2023-07-20T15:37:47.623Z,57.90
2023-07-20T15:40:15.597Z,59.28
2023-07-20T15:42:43.731Z,60.13
2023-07-20T15:45:11.874Z,60.40
2023-07-20T15:47:39.937Z,61.08
2023-07-20T15:50:08.283Z,61.71
2023-07-20T15:52:36.292Z,61.78
2023-07-20T15:55:05.830Z,61.86
2023-07-20T15:57:34.877Z,61.39
2023-07-20T16:00:06.060Z,60.89
2023-07-20T16:02:40.669Z,59.33
2023-07-20T16:07:44.522Z,56.69
2023-07-20T16:10:12.624Z,56.85
2023-07-20T16:12:42.318Z,57.22
2023-07-20T16:15:11.342Z,57.67
2023-07-20T16:17:39.379Z,57.78
2023-07-20T16:20:08.897Z,57.42
2023-07-20T16:22:37.366Z,56.60
2023-07-20T16:25:05.647Z,56.30
2023-07-20T16:27:33.583Z,56.28
2023-07-20T16:30:02.729Z,55.88
2023-07-20T16:32:30.734Z,54.86
2023-07-20T16:35:11.691Z,54.84
2023-07-20T16:37:40.091Z,55.59
2023-07-20T16:45:14.855Z,57.10
2023-07-20T16:47:42.977Z,57.52
2023-07-20T16:50:11.518Z,57.52
2023-07-20T16:52:39.520Z,57.17
2023-07-20T16:55:08.161Z,56.70
2023-07-20T16:57:36.602Z,55.87
2023-07-20T17:00:08.781Z,54.96
2023-07-20T17:02:37.956Z,55.21
2023-07-20T17:05:10.979Z,55.31
2023-07-20T17:07:40.204Z,54.43
2023-07-20T17:10:11.301Z,54.00
2023-07-20T17:12:41.326Z,54.16
2023-07-20T17:15:09.694Z,54.55
2023-07-20T17:17:37.712Z,55.15
2023-07-20T17:22:39.745Z,57.01
2023-07-20T17:30:11.773Z,61.19
2023-07-20T17:32:39.950Z,61.45
2023-07-20T17:35:08.328Z,63.88
2023-07-20T17:45:13.491Z,58.03
2023-07-20T17:47:42.409Z,59.06
2023-07-20T17:50:13.612Z,59.95
2023-07-20T17:52:42.764Z,59.97
2023-07-20T17:55:10.672Z,59.22
2023-07-20T17:57:38.682Z,58.75
2023-07-20T18:02:43.044Z,56.95
2023-07-20T18:05:11.290Z,57.07
2023-07-20T18:07:41.991Z,57.64
2023-07-20T18:10:10.476Z,58.30
2023-07-20T18:12:38.952Z,59.26
2023-07-20T18:15:07.355Z,60.07
2023-07-20T18:17:36.736Z,60.90
2023-07-20T18:20:06.795Z,61.34
2023-07-20T18:22:34.998Z,65.66
2023-07-20T18:25:06.080Z,67.73
2023-07-20T18:27:34.443Z,61.47
2023-07-20T18:30:02.437Z,58.68
2023-07-20T18:32:30.407Z,58.75
2023-07-20T18:34:58.446Z,59.35
2023-07-20T18:37:26.468Z,60.07
2023-07-20T18:39:54.907Z,60.39
2023-07-20T18:42:22.899Z,61.43
2023-07-20T18:44:52.181Z,62.02
2023-07-20T18:47:20.220Z,63.83
2023-07-20T18:49:48.277Z,62.62
2023-07-20T18:52:16.204Z,60.32
2023-07-20T18:54:44.635Z,57.11
2023-07-20T18:57:12.636Z,57.94
2023-07-20T18:59:42.436Z,59.21
2023-07-20T19:02:10.518Z,60.52
2023-07-20T19:04:38.518Z,61.32
2023-07-20T19:07:07.535Z,62.02
2023-07-20T19:09:35.596Z,62.63
2023-07-20T19:12:03.900Z,62.89
2023-07-20T19:14:31.912Z,58.82
2023-07-20T19:17:00.112Z,57.42
2023-07-20T19:19:30.148Z,58.35
2023-07-20T19:21:59.121Z,60.02
2023-07-20T19:24:27.055Z,61.11
2023-07-20T19:26:55.016Z,62.81
2023-07-20T19:29:22.999Z,62.34
2023-07-20T19:31:50.956Z,57.59
2023-07-20T19:34:19.110Z,56.73
2023-07-20T19:36:47.693Z,58.67
2023-07-20T19:39:15.925Z,60.73
2023-07-20T19:41:43.867Z,62.19
2023-07-20T19:44:12.286Z,63.77
2023-07-20T19:46:40.670Z,63.05
2023-07-20T19:49:08.893Z,58.18
2023-07-20T19:51:38.166Z,58.22
2023-07-20T19:56:39.203Z,61.80
2023-07-20T19:59:07.187Z,63.17
2023-07-20T20:06:37.032Z,58.16
2023-07-20T20:09:05.865Z,59.99
2023-07-20T20:11:33.913Z,61.33
2023-07-20T20:14:02.334Z,62.52
2023-07-20T20:16:30.460Z,65.38
2023-07-20T20:18:58.476Z,62.19
2023-07-20T20:21:26.521Z,57.96
2023-07-20T20:23:54.700Z,55.98
2023-07-20T20:26:23.407Z,58.24
2023-07-20T20:28:51.614Z,59.14
2023-07-20T20:31:19.588Z,59.19
2023-07-20T20:33:47.586Z,63.13
2023-07-20T20:36:17.258Z,65.12
2023-07-20T20:38:45.199Z,60.25
2023-07-20T20:41:13.193Z,59.86
2023-07-20T20:43:41.572Z,62.60
2023-07-20T20:46:14.553Z,65.05
2023-07-20T20:48:46.808Z,64.00
2023-07-20T20:51:15.054Z,58.80
2023-07-20T20:53:43.299Z,58.94
2023-07-20T20:56:11.320Z,62.76
2023-07-20T20:58:39.269Z,66.21
2023-07-20T21:01:09.478Z,64.78
2023-07-20T21:03:37.507Z,62.64
2023-07-20T21:06:06.474Z,59.37
2023-07-20T21:08:34.772Z,60.15
2023-07-20T21:11:03.360Z,63.85
2023-07-20T21:13:34.038Z,66.06
2023-07-20T21:16:01.958Z,64.47
2023-07-20T21:18:30.154Z,63.37
2023-07-20T21:20:58.098Z,59.04
2023-07-20T21:23:26.372Z,59.12
2023-07-20T21:25:54.282Z,62.99
2023-07-20T21:28:22.864Z,67.06
2023-07-20T21:31:08.164Z,64.71
2023-07-20T21:33:36.468Z,64.52
2023-07-20T21:36:06.711Z,63.60
2023-07-20T21:38:38.701Z,61.57
2023-07-20T21:41:07.848Z,61.73
2023-07-20T21:43:35.875Z,58.86
2023-07-20T21:46:03.952Z,58.08
2023-07-20T21:48:31.940Z,59.84
2023-07-20T21:51:00.430Z,64.08
2023-07-20T21:53:28.443Z,64.78
2023-07-20T21:55:56.498Z,63.32
2023-07-20T21:58:24.380Z,61.97
2023-07-20T22:00:56.911Z,59.30
2023-07-20T22:03:25.178Z,58.77
2023-07-20T22:05:57.260Z,62.96
2023-07-20T22:08:26.189Z,62.70
2023-07-20T22:10:54.767Z,62.62
2023-07-20T22:13:22.981Z,61.71
2023-07-20T22:15:53.524Z,59.04
2023-07-20T22:18:35.445Z,58.58
2023-07-20T22:21:06.330Z,60.59
2023-07-20T22:23:36.110Z,65.39
2023-07-20T22:26:04.364Z,66.21
2023-07-20T22:28:33.042Z,62.71
2023-07-20T22:31:01.184Z,62.66
2023-07-20T22:33:29.255Z,61.97
2023-07-20T22:35:57.217Z,59.30
2023-07-20T22:38:25.563Z,58.98
2023-07-20T22:40:53.700Z,63.01
2023-07-20T22:43:26.621Z,64.64
2023-07-20T22:45:56.030Z,62.66
2023-07-20T22:48:27.155Z,61.90
2023-07-20T22:50:59.837Z,61.05
2023-07-20T22:53:30.657Z,58.60
2023-07-20T22:55:59.249Z,58.46
2023-07-20T22:58:27.247Z,60.69
2023-07-20T23:00:55.365Z,65.71
2023-07-20T23:03:24.556Z,66.74
2023-07-20T23:05:52.918Z,63.03
2023-07-20T23:08:20.840Z,60.95
2023-07-20T23:10:48.795Z,59.09
2023-07-20T23:13:17.637Z,58.30
2023-07-20T23:15:45.822Z,62.97
2023-07-20T23:18:13.942Z,64.69
2023-07-20T23:20:41.988Z,62.60
2023-07-20T23:23:09.995Z,60.92
2023-07-20T23:25:37.993Z,58.63
2023-07-20T23:28:05.913Z,58.76
2023-07-20T23:30:34.539Z,59.57
2023-07-20T23:33:02.629Z,65.32
2023-07-20T23:35:30.765Z,65.56
2023-07-20T23:38:02.175Z,62.31
2023-07-20T23:40:30.180Z,61.87
2023-07-20T23:42:58.192Z,61.43
2023-07-20T23:45:26.212Z,59.09
2023-07-20T23:47:54.223Z,58.40
2023-07-20T23:50:22.409Z,62.96
2023-07-20T23:52:50.694Z,63.99
2023-07-20T23:55:18.726Z,63.00
2023-07-20T23:57:46.854Z,61.95
